createdAt,value
2022-09-17T00:01:27.239Z,5.35
2022-09-17T00:06:26.282Z,4.95
2022-09-17T00:08:54.819Z,5.65
2022-09-17T00:11:24.752Z,5.57
2022-09-17T00:13:53.895Z,5.60
2022-09-17T00:16:28.157Z,5.45
2022-09-17T00:18:56.728Z,4.95
2022-09-17T00:21:26.688Z,5.30
2022-09-17T00:23:56.096Z,5.07
2022-09-17T00:26:24.638Z,4.88
2022-09-17T00:28:53.138Z,4.78
2022-09-17T00:31:22.063Z,5.70
2022-09-17T00:33:50.563Z,4.70
2022-09-17T00:36:20.481Z,5.38
2022-09-17T00:38:51.821Z,4.55
2022-09-17T00:41:19.871Z,4.80
2022-09-17T00:43:50.909Z,4.47
2022-09-17T00:46:32.070Z,4.32
2022-09-17T00:49:03.093Z,4.05
2022-09-17T00:51:35.733Z,4.00
2022-09-17T00:54:08.031Z,3.28
2022-09-17T00:56:37.946Z,3.30
2022-09-17T00:59:06.445Z,3.42
2022-09-17T01:01:35.084Z,3.10
2022-09-17T01:04:03.439Z,2.90
2022-09-17T01:06:35.463Z,2.78
2022-09-17T01:09:19.629Z,3.33
2022-09-17T01:12:10.297Z,3.38
2022-09-17T01:14:59.204Z,3.20
2022-09-17T01:17:32.061Z,3.15
2022-09-17T01:20:29.844Z,2.72
2022-09-17T01:23:22.327Z,2.25
2022-09-17T01:26:07.760Z,2.40
2022-09-17T01:28:42.788Z,2.50
2022-09-17T01:31:29.830Z,2.25
2022-09-17T01:34:03.602Z,2.25
2022-09-17T01:36:45.423Z,2.60
2022-09-17T01:39:22.620Z,2.70
2022-09-17T01:41:55.675Z,2.40
2022-09-17T01:44:29.206Z,2.35
2022-09-17T01:47:04.477Z,2.25
2022-09-17T01:49:36.665Z,2.83
2022-09-17T01:52:06.014Z,2.25
2022-09-17T01:54:41.813Z,2.50
2022-09-17T01:57:14.869Z,2.55
2022-09-17T01:59:46.775Z,2.53
2022-09-17T02:02:21.589Z,2.70
2022-09-17T02:04:56.465Z,2.55
2022-09-17T02:07:25.877Z,2.78
2022-09-17T02:09:59.927Z,2.30
2022-09-17T02:12:32.858Z,2.53
2022-09-17T02:15:03.933Z,3.05
2022-09-17T02:17:38.192Z,2.92
2022-09-17T02:20:07.381Z,2.95
2022-09-17T02:22:41.323Z,2.47
2022-09-17T02:25:15.837Z,2.35
2022-09-17T02:27:51.984Z,2.60
2022-09-17T02:30:20.490Z,2.55
2022-09-17T02:32:50.003Z,2.15
2022-09-17T02:35:18.300Z,2.30
2022-09-17T02:37:46.678Z,2.40
2022-09-17T02:40:17.600Z,2.00
2022-09-17T02:43:00.247Z,2.40
2022-09-17T02:45:39.417Z,2.53
2022-09-17T02:48:25.372Z,2.15
2022-09-17T02:51:09.889Z,2.20
2022-09-17T02:53:43.004Z,1.85
2022-09-17T02:56:19.223Z,1.55
2022-09-17T02:58:53.665Z,1.88
2022-09-17T03:01:29.029Z,1.75
2022-09-17T03:06:41.290Z,1.55
2022-09-17T03:09:09.396Z,1.38
2022-09-17T03:11:37.217Z,1.83
2022-09-17T03:14:05.090Z,1.70
2022-09-17T03:16:33.467Z,1.50
2022-09-17T03:19:01.313Z,1.52
2022-09-17T03:21:29.136Z,1.65
2022-09-17T03:24:00.324Z,1.30
2022-09-17T03:26:28.352Z,1.48
2022-09-17T03:28:56.778Z,1.88
2022-09-17T03:31:24.670Z,1.50
2022-09-17T03:33:52.540Z,1.58
2022-09-17T03:36:20.345Z,1.40
2022-09-17T03:38:48.212Z,1.45
2022-09-17T03:41:17.419Z,1.52
2022-09-17T03:43:45.244Z,1.60
2022-09-17T03:46:13.096Z,1.63
2022-09-17T03:48:40.959Z,1.58
2022-09-17T03:51:08.853Z,1.80
2022-09-17T03:53:36.704Z,1.90
2022-09-17T03:56:06.900Z,1.50
2022-09-17T03:58:36.963Z,1.60
2022-09-17T04:01:04.884Z,1.48
2022-09-17T04:03:33.421Z,1.70
2022-09-17T04:06:01.300Z,1.80
2022-09-17T04:08:29.240Z,1.58
2022-09-17T04:10:57.111Z,1.80
2022-09-17T04:13:24.975Z,1.90
2022-09-17T04:15:54.182Z,1.80
2022-09-17T04:18:22.067Z,1.80
2022-09-17T04:20:49.927Z,1.73
2022-09-17T04:23:17.752Z,1.85
2022-09-17T04:25:45.601Z,2.10
2022-09-17T04:28:13.564Z,2.00
2022-09-17T04:30:42.889Z,1.85
2022-09-17T04:33:12.176Z,2.40
2022-09-17T04:35:40.189Z,2.15
2022-09-17T04:38:08.072Z,2.08
2022-09-17T04:40:36.085Z,2.20
2022-09-17T04:43:04.146Z,2.03
2022-09-17T04:45:33.414Z,2.40
2022-09-17T04:48:01.808Z,2.30
2022-09-17T04:50:30.997Z,2.15
2022-09-17T04:52:59.027Z,2.28
2022-09-17T04:55:27.432Z,2.40
2022-09-17T04:57:55.775Z,2.17
2022-09-17T05:00:24.492Z,1.83
2022-09-17T05:02:55.155Z,2.63
2022-09-17T05:05:24.502Z,2.13
2022-09-17T05:07:53.693Z,2.08
2022-09-17T05:10:23.134Z,1.70
2022-09-17T05:12:51.514Z,2.17
2022-09-17T05:15:19.680Z,1.80
2022-09-17T05:17:47.848Z,2.03
2022-09-17T05:20:16.628Z,1.95
2022-09-17T05:22:45.366Z,1.88
2022-09-17T05:25:16.094Z,1.60
2022-09-17T05:27:44.220Z,1.92
2022-09-17T05:30:13.406Z,1.92
2022-09-17T05:32:41.642Z,1.90
2022-09-17T05:35:11.067Z,2.20
2022-09-17T05:37:39.111Z,2.28
2022-09-17T05:40:08.861Z,2.17
2022-09-17T05:42:38.216Z,2.13
2022-09-17T05:45:08.007Z,2.17
2022-09-17T05:47:36.227Z,1.90
2022-09-17T05:50:04.305Z,2.20
2022-09-17T05:52:32.454Z,2.13
2022-09-17T05:55:00.248Z,2.17
2022-09-17T05:57:30.092Z,2.38
2022-09-17T05:59:59.376Z,2.22
2022-09-17T06:02:27.214Z,2.13
2022-09-17T06:04:55.322Z,2.20
2022-09-17T06:07:23.184Z,2.25
2022-09-17T06:09:51.009Z,1.83
2022-09-17T06:12:18.858Z,2.42
2022-09-17T06:14:46.700Z,1.83
2022-09-17T06:17:19.096Z,2.30
2022-09-17T06:19:49.965Z,1.95
2022-09-17T06:22:20.243Z,2.10
2022-09-17T06:24:48.172Z,1.80
2022-09-17T06:27:16.012Z,2.00
2022-09-17T06:29:43.845Z,1.83
2022-09-17T06:32:13.013Z,1.38
2022-09-17T06:34:42.277Z,2.10
2022-09-17T06:37:10.097Z,1.80
2022-09-17T06:39:37.886Z,2.17
2022-09-17T06:42:06.315Z,2.25
2022-09-17T06:44:34.146Z,1.90
2022-09-17T06:47:02.021Z,2.03
2022-09-17T06:49:31.158Z,1.80
2022-09-17T06:52:00.406Z,1.70
2022-09-17T06:54:28.248Z,1.73
2022-09-17T06:56:56.129Z,1.80
2022-09-17T06:59:24.478Z,1.45
2022-09-17T07:01:52.573Z,1.90
2022-09-17T07:04:20.437Z,1.70
2022-09-17T07:06:48.281Z,1.35
2022-09-17T07:09:17.447Z,1.70
2022-09-17T07:11:46.394Z,1.65
2022-09-17T07:14:14.218Z,1.60
2022-09-17T07:16:42.034Z,1.73
2022-09-17T07:19:11.162Z,1.75
2022-09-17T07:21:39.103Z,1.60
2022-09-17T07:24:07.321Z,1.50
2022-09-17T07:26:36.636Z,1.90
2022-09-17T07:29:04.524Z,1.60
2022-09-17T07:31:32.625Z,1.60
2022-09-17T07:34:01.682Z,1.48
2022-09-17T07:36:29.598Z,1.70
2022-09-17T07:38:57.406Z,1.40
2022-09-17T07:41:25.262Z,1.55
2022-09-17T07:43:55.436Z,1.30
2022-09-17T07:46:23.562Z,1.65
2022-09-17T07:48:51.973Z,1.50
2022-09-17T07:51:21.874Z,1.30
2022-09-17T07:53:52.116Z,1.67
2022-09-17T07:56:19.974Z,1.35
2022-09-17T07:58:47.948Z,1.48
2022-09-17T08:01:18.217Z,1.65
2022-09-17T08:03:50.135Z,1.63
2022-09-17T08:06:20.648Z,1.42
2022-09-17T08:08:48.968Z,1.10
2022-09-17T08:11:38.251Z,1.27
2022-09-17T08:14:06.589Z,1.27
2022-09-17T08:16:35.855Z,1.45
2022-09-17T08:19:03.760Z,1.30
2022-09-17T08:21:31.681Z,1.60
2022-09-17T08:23:59.932Z,1.70
2022-09-17T08:26:27.918Z,1.20
2022-09-17T08:28:57.215Z,1.45
2022-09-17T08:31:26.506Z,1.20
2022-09-17T08:33:55.758Z,1.38
2022-09-17T08:36:25.863Z,1.05
2022-09-17T08:38:54.927Z,1.45
2022-09-17T08:41:29.320Z,1.30
2022-09-17T08:44:09.084Z,1.25
2022-09-17T08:46:44.296Z,1.42
2022-09-17T08:49:24.959Z,1.45
2022-09-17T08:52:07.861Z,1.73
2022-09-17T08:54:43.416Z,1.30
2022-09-17T08:57:21.779Z,1.55
2022-09-17T08:59:59.310Z,1.50
2022-09-17T09:02:41.032Z,1.90
2022-09-17T09:05:15.491Z,1.23
2022-09-17T09:07:47.025Z,1.40
2022-09-17T09:10:20.842Z,1.40
2022-09-17T09:12:49.726Z,1.50
2022-09-17T09:15:31.022Z,1.70
2022-09-17T09:18:03.100Z,1.70
2022-09-17T09:20:44.037Z,1.77
2022-09-17T09:23:19.913Z,1.70
2022-09-17T09:25:55.767Z,1.42
2022-09-17T09:28:57.057Z,2.00
2022-09-17T09:31:47.906Z,1.38
2022-09-17T09:34:16.682Z,1.25
2022-09-17T09:36:46.610Z,1.70
2022-09-17T09:39:21.764Z,1.75
2022-09-17T09:41:54.209Z,1.60
2022-09-17T09:44:25.045Z,1.45
2022-09-17T09:47:22.974Z,2.00
2022-09-17T09:50:04.279Z,1.70
2022-09-17T09:52:49.790Z,1.95
2022-09-17T09:55:40.976Z,1.92
2022-09-17T09:58:24.309Z,1.80
2022-09-17T10:00:52.729Z,1.80
2022-09-17T10:03:22.768Z,1.60
2022-09-17T10:05:58.811Z,1.73
2022-09-17T10:08:29.402Z,1.33
2022-09-17T10:10:59.594Z,1.80
2022-09-17T10:13:29.128Z,1.77
2022-09-17T10:15:57.600Z,2.00
2022-09-17T10:18:26.437Z,1.75
2022-09-17T10:20:59.982Z,1.75
2022-09-17T10:23:31.686Z,1.63
2022-09-17T10:25:59.580Z,1.75
2022-09-17T10:28:36.774Z,1.77
2022-09-17T10:31:10.163Z,1.67
2022-09-17T10:33:42.201Z,1.65
2022-09-17T10:36:14.686Z,1.73
2022-09-17T10:38:46.430Z,1.60
2022-09-17T10:41:16.941Z,1.55
2022-09-17T10:43:44.976Z,1.48
2022-09-17T10:46:17.382Z,1.40
2022-09-17T10:48:52.055Z,2.20
2022-09-17T10:51:25.645Z,1.90
2022-09-17T10:54:21.232Z,2.05
2022-09-17T10:56:54.116Z,2.10
2022-09-17T10:59:45.709Z,1.80
2022-09-17T11:02:51.590Z,1.30
2022-09-17T11:05:52.851Z,1.60
2022-09-17T11:08:25.211Z,1.20
2022-09-17T11:11:06.511Z,1.42
2022-09-17T11:13:40.843Z,1.67
2022-09-17T11:16:26.508Z,1.85
2022-09-17T11:19:05.565Z,1.83
2022-09-17T11:21:45.290Z,2.47
2022-09-17T11:24:33.064Z,1.60
2022-09-17T11:27:10.985Z,1.45
2022-09-17T11:29:58.543Z,1.40
2022-09-17T11:32:45.336Z,1.55
2022-09-17T11:35:17.876Z,1.30
2022-09-17T11:37:57.734Z,1.40
2022-09-17T11:40:41.775Z,1.20
2022-09-17T11:43:20.560Z,1.00
2022-09-17T11:45:58.602Z,1.17
2022-09-17T11:48:34.981Z,1.05
2022-09-17T11:51:09.260Z,0.93
2022-09-17T11:53:43.200Z,1.17
2022-09-17T11:56:18.514Z,1.20
2022-09-17T11:58:52.151Z,1.13
2022-09-17T12:01:26.824Z,1.25
2022-09-17T12:04:00.294Z,1.20
2022-09-17T12:12:07.540Z,1.00
2022-09-17T12:14:47.331Z,0.82
2022-09-17T12:17:21.400Z,1.38
2022-09-17T12:19:53.129Z,1.10
2022-09-17T12:22:24.745Z,1.30
2022-09-17T12:24:53.124Z,1.30
2022-09-17T12:27:37.467Z,1.35
2022-09-17T12:30:13.653Z,1.17
2022-09-17T12:33:20.963Z,1.33
2022-09-17T12:36:27.217Z,1.35
2022-09-17T12:39:25.177Z,1.52
2022-09-17T12:42:01.941Z,1.17
2022-09-17T12:44:55.923Z,1.50
2022-09-17T12:50:17.757Z,1.17
2022-09-17T12:53:00.556Z,1.52
2022-09-17T12:55:53.036Z,1.33
2022-09-17T12:58:35.921Z,1.58
2022-09-17T13:01:07.845Z,1.90
2022-09-17T13:03:41.626Z,1.63
2022-09-17T13:06:36.072Z,1.70
2022-09-17T13:09:39.467Z,1.77
2022-09-17T13:12:23.599Z,1.80
2022-09-17T13:18:26.095Z,1.52
2022-09-17T13:21:05.561Z,1.40
2022-09-17T13:23:40.013Z,1.73
2022-09-17T13:26:09.122Z,1.83
2022-09-17T13:28:46.731Z,1.38
2022-09-17T13:31:21.371Z,1.10
2022-09-17T13:33:54.227Z,1.20
2022-09-17T13:36:43.790Z,1.58
2022-09-17T13:39:33.250Z,1.30
2022-09-17T13:42:04.742Z,1.55
2022-09-17T13:44:36.056Z,1.92
2022-09-17T13:47:15.489Z,1.80
2022-09-17T13:49:50.586Z,1.70
2022-09-17T13:52:33.680Z,1.75
2022-09-17T13:55:02.401Z,1.67
2022-09-17T13:57:33.433Z,1.63
2022-09-17T14:00:02.582Z,1.45
2022-09-17T14:02:39.684Z,1.20
2022-09-17T14:05:37.672Z,1.25
2022-09-17T14:08:32.025Z,1.40
2022-09-17T14:11:02.490Z,1.75
2022-09-17T14:13:43.024Z,1.95
2022-09-17T14:16:35.709Z,1.83
2022-09-17T14:19:20.335Z,1.73
2022-09-17T14:21:59.591Z,1.83
2022-09-17T14:24:35.525Z,1.88
2022-09-17T14:27:19.052Z,1.45
2022-09-17T14:30:15.219Z,1.60
2022-09-17T14:32:48.941Z,1.27
2022-09-17T14:35:27.413Z,1.33
2022-09-17T14:37:58.848Z,1.42
2022-09-17T14:40:29.121Z,0.95
2022-09-17T14:42:58.557Z,1.20
2022-09-17T14:45:30.019Z,1.20
2022-09-17T14:48:20.450Z,0.98
2022-09-17T14:50:48.353Z,1.20
2022-09-17T14:53:18.643Z,1.38
2022-09-17T14:55:50.216Z,1.33
2022-09-17T14:58:31.238Z,1.20
2022-09-17T15:00:59.468Z,1.30
2022-09-17T15:03:27.575Z,1.70
2022-09-17T15:05:55.568Z,1.58
2022-09-17T15:08:25.268Z,1.45
2022-09-17T15:10:57.795Z,1.45
2022-09-17T15:13:28.509Z,1.20
2022-09-17T15:16:07.572Z,1.20
2022-09-17T15:18:39.032Z,0.90
2022-09-17T15:21:23.626Z,1.08
2022-09-17T15:23:54.544Z,0.80
2022-09-17T15:26:30.386Z,1.08
2022-09-17T15:28:59.210Z,1.08
2022-09-17T15:31:29.768Z,1.00
2022-09-17T15:34:00.724Z,0.80
2022-09-17T15:36:30.160Z,0.85
2022-09-17T15:38:58.817Z,0.90
2022-09-17T15:41:32.664Z,0.60
2022-09-17T15:44:28.650Z,0.63
2022-09-17T15:46:57.665Z,0.60
2022-09-17T15:49:31.117Z,0.80
2022-09-17T15:54:44.979Z,0.52
2022-09-17T15:57:16.592Z,0.73
2022-09-17T15:59:44.489Z,0.70
2022-09-17T16:02:27.791Z,0.70
2022-09-17T16:05:54.215Z,0.80
2022-09-17T16:08:25.285Z,0.90
2022-09-17T16:11:07.579Z,0.90
2022-09-17T16:13:36.856Z,0.90
2022-09-17T16:16:05.692Z,0.90
2022-09-17T16:18:33.830Z,0.95
2022-09-17T16:21:01.679Z,1.10
2022-09-17T16:23:29.597Z,0.98
2022-09-17T16:25:58.848Z,0.70
2022-09-17T16:28:26.740Z,0.80
2022-09-17T16:30:56.038Z,0.70
2022-09-17T16:33:24.633Z,0.70
2022-09-17T16:35:52.490Z,0.60
2022-09-17T16:38:20.284Z,0.60
2022-09-17T16:40:48.173Z,0.90
2022-09-17T16:43:16.359Z,0.70
2022-09-17T16:45:44.331Z,0.80
2022-09-17T16:48:13.618Z,0.60
2022-09-17T16:50:42.934Z,0.73
2022-09-17T16:53:10.795Z,0.70
2022-09-17T16:55:39.868Z,0.75
2022-09-17T16:58:07.674Z,0.70
2022-09-17T17:00:37.244Z,0.90
2022-09-17T17:03:06.782Z,0.60
2022-09-17T17:05:37.898Z,0.82
2022-09-17T17:08:06.962Z,0.90
2022-09-17T17:10:35.600Z,0.60
2022-09-17T17:13:03.475Z,0.90
2022-09-17T17:15:31.356Z,0.70
2022-09-17T17:17:59.259Z,0.77
2022-09-17T17:20:27.163Z,0.80
2022-09-17T17:22:56.387Z,0.80
2022-09-17T17:25:24.605Z,1.05
2022-09-17T17:27:52.474Z,0.90
2022-09-17T17:30:20.500Z,0.80
2022-09-17T17:32:51.517Z,0.98
2022-09-17T17:35:19.443Z,0.88
2022-09-17T17:37:48.549Z,0.73
2022-09-17T17:40:18.025Z,0.80
2022-09-17T17:42:47.423Z,1.00
2022-09-17T17:45:15.831Z,1.08
2022-09-17T17:47:43.667Z,0.80
2022-09-17T17:50:11.626Z,0.73
2022-09-17T17:52:40.288Z,0.68
2022-09-17T17:55:08.997Z,0.70
2022-09-17T17:57:38.401Z,0.93
2022-09-17T18:00:07.591Z,0.70
2022-09-17T18:02:40.138Z,0.80
2022-09-17T18:05:08.597Z,0.80
2022-09-17T18:07:36.420Z,0.60
2022-09-17T18:10:07.524Z,0.82
2022-09-17T18:15:07.888Z,0.88
2022-09-17T18:17:36.574Z,0.60
2022-09-17T18:20:05.875Z,0.75
2022-09-17T18:22:33.783Z,0.70
2022-09-17T18:25:01.646Z,0.82
2022-09-17T18:27:29.468Z,0.90
2022-09-17T18:29:58.640Z,0.70
2022-09-17T18:32:26.495Z,0.73
2022-09-17T18:34:54.341Z,0.65
2022-09-17T18:37:22.164Z,0.50
2022-09-17T18:39:58.448Z,1.02
2022-09-17T18:42:27.254Z,0.90
2022-09-17T18:44:55.100Z,0.77
2022-09-17T18:47:24.535Z,0.90
2022-09-17T18:49:52.369Z,0.85
2022-09-17T18:52:20.414Z,0.95
2022-09-17T18:54:48.309Z,0.95
2022-09-17T18:57:16.236Z,0.80
2022-09-17T18:59:44.070Z,1.15
2022-09-17T19:02:12.996Z,1.10
2022-09-17T19:04:42.235Z,0.90
2022-09-17T19:07:10.094Z,0.93
2022-09-17T19:09:37.944Z,0.90
2022-09-17T19:12:05.970Z,0.93
2022-09-17T19:14:33.841Z,1.25
2022-09-17T19:17:01.698Z,1.02
2022-09-17T19:19:29.908Z,0.82
2022-09-17T19:21:59.088Z,1.10
2022-09-17T19:24:26.997Z,1.00
2022-09-17T19:26:54.845Z,0.98
2022-09-17T19:29:22.725Z,0.90
2022-09-17T19:31:50.582Z,0.90
2022-09-17T19:34:18.472Z,1.15
2022-09-17T19:36:46.288Z,1.13
2022-09-17T19:39:17.554Z,1.20
2022-09-17T19:41:45.495Z,0.98
2022-09-17T19:44:14.801Z,0.98
2022-09-17T19:49:24.595Z,1.10
2022-09-17T19:51:52.428Z,0.85
2022-09-17T19:54:21.649Z,1.23
2022-09-17T19:56:49.487Z,0.93
2022-09-17T19:59:17.329Z,1.00
2022-09-17T20:01:49.276Z,1.00
2022-09-17T20:04:20.723Z,1.08
2022-09-17T20:06:48.673Z,0.90
2022-09-17T20:09:16.537Z,1.30
2022-09-17T20:11:45.726Z,1.10
2022-09-17T20:14:13.821Z,1.02
2022-09-17T20:16:43.417Z,1.05
2022-09-17T20:19:14.910Z,1.30
2022-09-17T20:21:42.800Z,1.20
2022-09-17T20:24:10.675Z,1.13
2022-09-17T20:26:38.602Z,1.23
2022-09-17T20:29:07.785Z,1.10
2022-09-17T20:31:35.671Z,1.15
2022-09-17T20:34:04.572Z,1.27
2022-09-17T20:36:35.932Z,1.13
2022-09-17T20:39:12.216Z,1.40
2022-09-17T20:41:42.203Z,1.38
2022-09-17T20:44:11.470Z,1.25
2022-09-17T20:46:39.485Z,1.15
2022-09-17T20:49:07.439Z,1.48
2022-09-17T20:51:35.955Z,1.50
2022-09-17T20:54:04.197Z,1.60
2022-09-17T20:56:34.177Z,1.65
2022-09-17T20:59:08.325Z,1.73
2022-09-17T21:01:38.158Z,1.55
2022-09-17T21:04:08.675Z,1.50
2022-09-17T21:06:38.626Z,2.00
2022-09-17T21:09:07.300Z,1.73
2022-09-17T21:11:35.770Z,1.85
2022-09-17T21:14:04.102Z,1.80
2022-09-17T21:16:32.304Z,1.90
2022-09-17T21:19:03.258Z,1.60
2022-09-17T21:21:34.290Z,1.58
2022-09-17T21:24:02.700Z,1.60
2022-09-17T21:26:30.865Z,1.55
2022-09-17T21:28:59.343Z,1.55
2022-09-17T21:31:32.365Z,1.58
2022-09-17T21:34:03.201Z,1.63
2022-09-17T21:36:32.509Z,1.30
2022-09-17T21:39:02.036Z,1.75
2022-09-17T21:41:30.486Z,1.50
2022-09-17T21:43:58.781Z,1.77
2022-09-17T21:46:28.535Z,1.20
2022-09-17T21:48:57.860Z,1.20
2022-09-17T21:51:30.297Z,1.20
2022-09-17T21:54:01.254Z,1.07
2022-09-17T21:56:30.380Z,0.90
2022-09-17T21:58:59.923Z,0.70
2022-09-17T22:01:31.064Z,0.60
2022-09-17T22:04:00.120Z,0.60
2022-09-17T22:06:31.605Z,0.40
2022-09-17T22:09:01.950Z,0.50
2022-09-17T22:11:31.249Z,0.70
2022-09-17T22:14:00.770Z,0.88
2022-09-17T22:16:30.677Z,0.73
2022-09-17T22:18:59.569Z,0.60
2022-09-17T22:21:30.025Z,0.80
2022-09-17T22:23:59.558Z,0.70
2022-09-17T22:26:30.525Z,0.63
2022-09-17T22:29:02.520Z,1.02
2022-09-17T22:31:30.919Z,0.57
2022-09-17T22:33:59.309Z,0.70
2022-09-17T22:36:29.270Z,0.70
2022-09-17T22:38:59.181Z,0.70
2022-09-17T22:41:28.651Z,0.68
2022-09-17T22:43:58.080Z,0.85
2022-09-17T22:46:27.983Z,0.73
2022-09-17T22:48:56.110Z,0.80
2022-09-17T22:51:24.353Z,0.60
2022-09-17T22:53:53.596Z,0.77
2022-09-17T22:56:23.227Z,0.80
2022-09-17T22:58:51.561Z,0.73
2022-09-17T23:01:21.955Z,0.90
2022-09-17T23:03:51.885Z,1.00
2022-09-17T23:06:21.816Z,0.80
2022-09-17T23:08:49.733Z,0.80
2022-09-17T23:11:20.962Z,0.93
2022-09-17T23:13:49.533Z,0.70
2022-09-17T23:16:18.184Z,1.13
2022-09-17T23:18:46.499Z,0.90
2022-09-17T23:21:16.562Z,1.10
2022-09-17T23:23:45.672Z,1.00
2022-09-17T23:26:15.753Z,1.00
2022-09-17T23:28:45.356Z,0.85
2022-09-17T23:31:15.381Z,1.25
2022-09-17T23:33:43.877Z,1.10
2022-09-17T23:36:13.748Z,0.98
2022-09-17T23:38:42.518Z,1.42
2022-09-17T23:41:12.653Z,1.13
2022-09-17T23:43:40.515Z,1.30
2022-09-17T23:46:09.748Z,1.00
2022-09-17T23:48:37.633Z,1.30
2022-09-17T23:51:06.104Z,1.00
2022-09-17T23:53:35.806Z,1.08
2022-09-17T23:56:04.984Z,1.48
2022-09-17T23:58:33.665Z,1.17
